Flight Track Log - Related Links

Times and Time Zones

All times are in EDT time to prevent confusion due to time zone crossing. See the AWI3757 flight status page for this flight to view local times or setup timezone preferences in your user account.

Time Position Orientation Groundspeed Altitude Reporting Facility
EDT Latitude Longitude Course Direction KTS MPH feet Rate Location/Type
Tue 07:28:03 AM 45.2667 -75.7000 197° South 190 219 2,400  Level Montreal Center
Tue 07:29:00 AM 44.9846 -75.7332 186° South  Level FlightAware Approximate
Tue 07:29:03 AM 45.2167 -75.7500 215° Southwest 240 276 4,000  Level Montreal Center
Tue 07:30:00 AM 44.8784 -75.7831 197° South  Level FlightAware Approximate
Tue 07:30:03 AM 45.1500 -75.8000 208° Southwest 270 311 6,300  Level Montreal Center
Tue 07:31:00 AM 44.7709 -75.8264 193° South  Level FlightAware Approximate
Tue 07:31:03 AM 45.0667 -75.8333 196° South 280 322 8,400  Level Montreal Center
Tue 07:32:00 AM 44.6634 -75.8705 197° South  Level FlightAware Approximate
Tue 07:32:03 AM 45.0000 -75.8500 190° South 280 322 10,800  Level Montreal Center
Tue 07:33:00 AM 44.5562 -75.9155 197° South  Level FlightAware Approximate
Tue 07:33:03 AM 44.9167 -75.8667 188° South 300 345 12,700  Level Montreal Center
Tue 07:34:03 AM 44.8333 -75.9000 196° South 310 357 15,000 2,050 Climbing Montreal Center
Tue 07:35:03 AM 44.7500 -75.9167 188° South 320 368 16,800 1,650 Climbing Montreal Center
Tue 07:36:03 AM 44.6500 -75.9167 180° South 330 380 18,300 1,500 Climbing Montreal Center
Tue 07:37:03 AM 44.5667 -75.9500 196° South 340 391 19,800 1,500 Climbing Montreal Center
Tue 07:38:03 AM 44.4667 -75.9667 187° South 340 391 21,300 1,350 Climbing Montreal Center
Tue 07:39:03 AM 44.3667 -76.0000 193° South 350 403 22,500 1,074 Climbing Montreal Center
Tue 07:39:38 AM 44.3231 -75.9953 176° South 365 420 23,000 947 Climbing Boston Center
Tue 07:40:38 AM 44.2225 -76.0153 188° South 370 426 24,000 1,000 Climbing Boston Center
Tue 07:41:38 AM 44.1197 -76.0381 189° South 370 426 25,000 950 Climbing Boston Center
Tue 07:42:38 AM 44.0128 -76.0547 186° South 375 432 25,900 850 Climbing Boston Center
Tue 07:43:38 AM 43.9058 -76.0742 187° South 380 437 26,700 800 Climbing Boston Center
Tue 07:44:38 AM 43.7969 -76.0936 187° South 390 449 27,500 800 Climbing Boston Center
Tue 07:45:38 AM 43.6961 -76.1133 188° South 402 463 28,300 800 Climbing Boston Center
Tue 07:46:38 AM 43.5869 -76.1325 187° South 402 463 29,100 800 Climbing Boston Center
Tue 07:47:38 AM 43.4781 -76.1517 187° South 402 463 29,900 650 Climbing Boston Center
Tue 07:48:38 AM 43.3647 -76.1733 188° South 408 470 30,400 550 Climbing Boston Center
Tue 07:49:38 AM 43.2558 -76.1922 187° South 408 470 31,000 650 Climbing Boston Center
Tue 07:50:38 AM 43.1464 -76.2225 191° South 408 470 31,700 706 Climbing Boston Center
Tue 07:52:45 AM 42.9367 -76.3942 211° Southwest 403 464 33,200 674 Climbing Cleveland Center
Tue 07:53:45 AM 42.8436 -76.4711 211° Southwest 398 458 33,800 400 Climbing Cleveland Center
Tue 07:54:45 AM 42.7483 -76.5481 211° Southwest 393 452 34,000 64 Climbing Cleveland Center
Tue 07:56:52 AM 42.5539 -76.7036 211° Southwest 392 451 34,000  Level New York Center
Tue 07:57:53 AM 42.4539 -76.7844 211° Southwest 413 475 34,000  Level New York Center
Tue 07:58:54 AM 42.3500 -76.8675 211° Southwest 413 475 34,000  Level New York Center
Tue 07:59:55 AM 42.2500 -76.9478 211° Southwest 413 475 34,000  Level New York Center
Tue 08:00:52 AM 42.1522 -77.0256 211° Southwest 413 475 34,000  Level New York Center
Tue 08:01:54 AM 42.0544 -77.1028 210° Southwest 418 481 34,000  Level New York Center
Tue 08:02:53 AM 41.9564 -77.1828 211° Southwest 418 481 34,000  Level New York Center
Tue 08:03:54 AM 41.8586 -77.2597 210° Southwest 418 481 34,000  Level New York Center
Tue 08:04:55 AM 41.7583 -77.3389 211° Southwest 418 481 34,000  Level New York Center
Tue 08:05:55 AM 41.6647 -77.4131 211° Southwest 418 481 34,000  Level New York Center
Tue 08:06:53 AM 41.5664 -77.4947 212° Southwest 413 475 34,000  Level New York Center
Tue 08:07:53 AM 41.4686 -77.5681 209° Southwest 413 475 34,000  Level New York Center
Tue 08:10:21 AM 41.2247 -77.7561 210° Southwest 426 490 34,000  Level Cleveland Center
Tue 08:11:21 AM 41.1264 -77.8292 209° Southwest 415 478 34,000  Level Cleveland Center
Tue 08:12:21 AM 41.0281 -77.9078 211° Southwest 415 478 34,000  Level Cleveland Center
Tue 08:13:21 AM 40.9319 -77.9858 212° Southwest 415 478 34,000  Level Cleveland Center
Tue 08:14:21 AM 40.8672 -78.0708 225° Southwest 415 478 34,000  Level Cleveland Center
Tue 08:15:21 AM 40.7844 -78.1944 229° Southwest 408 470 34,000  Level Cleveland Center
Tue 08:16:21 AM 40.7075 -78.3150 230° Southwest 419 482 34,000  Level Cleveland Center
Tue 08:17:21 AM 40.6328 -78.4325 230° Southwest 424 488 34,000  Level Cleveland Center
Tue 08:18:21 AM 40.5578 -78.5497 230° Southwest 430 495 34,000  Level Cleveland Center
Tue 08:19:21 AM 40.4806 -78.6669 229° Southwest 430 495 34,000  Level Cleveland Center
Tue 08:20:21 AM 40.4033 -78.7864 230° Southwest 430 495 34,000  Level Cleveland Center
Tue 08:21:21 AM 40.3258 -78.9028 229° Southwest 430 495 34,000  Level Cleveland Center
Tue 08:22:21 AM 40.2503 -79.0189 230° Southwest 430 495 34,000  Level Cleveland Center
Tue 08:23:21 AM 40.1728 -79.1375 229° Southwest 430 495 34,000  Level Cleveland Center
Tue 08:24:21 AM 40.0947 -79.2533 229° Southwest 430 495 34,000  Level Cleveland Center
Tue 08:25:21 AM 40.0189 -79.3686 229° Southwest 430 495 34,000  Level Cleveland Center
Tue 08:26:21 AM 39.9431 -79.4836 229° Southwest 430 495 34,000  Level Cleveland Center
Tue 08:27:21 AM 39.8669 -79.5986 229° Southwest 430 495 34,000  Level Cleveland Center
Tue 08:28:21 AM 39.7886 -79.7131 228° Southwest 430 495 34,000  Level Cleveland Center
Tue 08:29:21 AM 39.7103 -79.8247 228° Southwest 430 495 34,000  Level Cleveland Center
Tue 08:30:21 AM 39.6358 -79.9389 230° Southwest 430 495 34,000  Level Cleveland Center
Tue 08:32:09 AM 39.4872 -80.1528 228° Southwest 418 481 34,000  Level Indianapolis Center
Tue 08:33:11 AM 39.4067 -80.2625 226° Southwest 421 484 34,000  Level Indianapolis Center
Tue 08:34:12 AM 39.3303 -80.3739 228° Southwest 415 478 34,000  Level Indianapolis Center
Tue 08:35:14 AM 39.2514 -80.4842 227° Southwest 416 479 34,000  Level Indianapolis Center
Tue 08:36:16 AM 39.1736 -80.5925 227° Southwest 413 475 34,000  Level Indianapolis Center
Tue 08:37:17 AM 39.0944 -80.7031 227° Southwest 418 481 34,000  Level Indianapolis Center
Tue 08:38:19 AM 39.0147 -80.8117 227° Southwest 416 479 34,000  Level Indianapolis Center
Tue 08:40:22 AM 38.8600 -81.0369 229° Southwest 420 483 34,000  Level Indianapolis Center
Tue 08:41:23 AM 38.7661 -81.1733 229° Southwest 423 487 34,000  Level Indianapolis Center
Tue 08:42:25 AM 38.6867 -81.2883 229° Southwest 426 490 34,000  Level Indianapolis Center
Tue 08:43:27 AM 38.6050 -81.4036 228° Southwest 427 491 34,000  Level Indianapolis Center
Tue 08:44:28 AM 38.5242 -81.5208 229° Southwest 429 494 34,000  Level Indianapolis Center
Tue 08:45:30 AM 38.4436 -81.6364 228° Southwest 428 493 34,000  Level Indianapolis Center
Tue 08:46:31 AM 38.3578 -81.7414 224° Southwest 424 488 34,000  Level Indianapolis Center
Tue 08:47:33 AM 38.2506 -81.7906 200° South 411 473 34,000  Level Indianapolis Center
Tue 08:48:35 AM 38.1389 -81.8114 188° South 405 466 34,000  Level Indianapolis Center
Tue 08:49:36 AM 38.0264 -81.8322 188° South 407 468 34,000 -49 Level Indianapolis Center
Tue 08:50:38 AM 37.9131 -81.8542 189° South 410 472 33,900 -634 Descending Indianapolis Center
Tue 08:51:39 AM 37.7925 -81.8778 189° South 411 473 32,700 -1,171 Descending Indianapolis Center
Tue 08:52:41 AM 37.6786 -81.8992 188° South 411 473 31,500 -1,258 Descending Indianapolis Center
Tue 08:53:43 AM 37.5458 -81.9244 189° South 412 474 30,100 -1,317 Descending Indianapolis Center
Tue 08:54:44 AM 37.4328 -81.9450 188° South 410 472 28,800 -1,024 Descending Indianapolis Center
Tue 08:55:46 AM 37.3206 -81.9653 188° South 407 468 28,000 -387 Descending Indianapolis Center
Tue 08:56:48 AM 37.2117 -81.9869 189° South 397 457 28,000  Level Indianapolis Center
Tue 08:57:50 AM 37.1003 -82.0072 188° South 399 459 28,000  Level Indianapolis Center
Tue 08:58:51 AM 36.9958 -81.9817 169° South 377 434 28,000 -49 Level Indianapolis Center
Tue 08:59:53 AM 36.8925 -81.9511 167° South 379 436 27,900 -581 Descending Indianapolis Center
Tue 09:00:55 AM 36.7886 -81.9219 167° South 379 436 26,800 -1,317 Descending Indianapolis Center
Tue 09:01:56 AM 36.6644 -81.8864 167° South 387 445 25,200 -1,366 Descending Indianapolis Center
Tue 09:02:58 AM 36.5536 -81.8550 167° South 401 461 24,000 -581 Descending Indianapolis Center
Tue 09:04:00 AM 36.4461 -81.8239 167° South 397 457 24,000 -50 Level Indianapolis Center
Tue 09:04:57 AM 36.3422 -81.7964 168° South 390 449 23,900 -1,077 Descending Atlanta Center
Tue 09:05:57 AM 36.2375 -81.7658 167° South 395 455 21,900 -1,950 Descending Atlanta Center
Tue 09:06:57 AM 36.1369 -81.7378 167° South 390 449 20,000 -1,900 Descending Atlanta Center
Tue 09:07:57 AM 36.0361 -81.7097 167° South 370 426 18,100 -1,900 Descending Atlanta Center
Tue 09:08:57 AM 35.9375 -81.6817 167° South 370 426 16,200 -1,850 Descending Atlanta Center
Tue 09:09:57 AM 35.8411 -81.6564 168° South 360 414 14,400 -2,600 Descending Atlanta Center
Tue 09:10:57 AM 35.7467 -81.6311 168° South 355 409 11,000 -1,642 Descending Atlanta Center
Tue 09:11:32 AM 35.6964 -81.6094 161° South 338 389 11,800 100 Climbing Atlanta Center
Tue 09:11:57 AM 35.6603 -81.5850 151° Southeast 345 397 11,100 -716 Descending Atlanta Center
Tue 09:12:39 AM 35.6075 -81.5483 151° Southeast 329 379 11,000 -100 Descending Atlanta Center
Tue 09:12:57 AM 35.5819 -81.5311 151° Southeast 331 381 11,000  Level Atlanta Center
Tue 09:13:39 AM 35.5328 -81.4739 137° Southeast 329 379 11,000 -100 Level Atlanta Center
Tue 09:13:57 AM 35.5197 -81.4489 123° Southeast 321 369 10,900 -787 Descending Atlanta Center
Tue 09:14:40 AM 35.5078 -81.3778 102° East 285 328 10,200 -800 Descending Atlanta Center
Tue 09:14:57 AM 35.5053 -81.3525 97° East 297 342 10,100 -1,247 Descending Atlanta Center
Tue 09:15:57 AM 35.4864 -81.2561 104° East 285 328 8,600 -1,385 Descending Atlanta Center
Tue 09:16:54 AM 35.4739 -81.1647 100° East 282 325 7,400 -971 Descending Atlanta Center
Tue 09:17:42 AM 35.4639 -81.0936 100° East 278 320 6,900 -762 Descending Atlanta Center
Tue 09:17:57 AM 35.4592 -81.0683 103° East 285 328 6,600 -1,200 Descending Atlanta Center
Tue 09:18:57 AM 35.4178 -81.0036 128° Southeast 255 293 5,400 -1,200 Descending Atlanta Center

Login

Don't have an account? Register now (free) for customized features, flight alerts, and more!